Time,TemperatureF,DewpointF,PressureIn,WindDirection,WindDirectionDegrees,WindSpeedMPH,WindSpeedGustMPH,Humidity,HourlyPrecipIn,Conditions,Clouds,dailyrainin,SolarRadiationWatts/m^2,SoftwareType,DateUTC
2013-03-08 00:21:00,47.0,46.0,-100.00,ENE,74,6.0,12.0,98,0.00,,,0.01,0.000000,,2013-03-08 10:21:00,
2013-03-08 00:31:00,47.0,46.0,-100.00,ENE,74,6.0,12.0,98,0.00,,,0.01,0.000000,,2013-03-08 10:31:00,
2013-03-08 00:41:00,47.0,46.0,-100.00,ENE,74,6.0,12.0,98,0.00,,,0.01,0.000000,,2013-03-08 10:41:00,
2013-03-08 00:51:00,47.0,46.0,-100.00,ENE,74,6.0,12.0,98,0.00,,,0.01,0.000000,,2013-03-08 10:51:00,
2013-03-08 01:21:00,48.0,47.0,-100.00,East,94,7.0,10.0,97,0.00,,,0.01,0.000000,,2013-03-08 11:21:00,
2013-03-08 01:32:00,48.0,47.0,-100.00,East,94,7.0,10.0,97,0.00,,,0.01,0.000000,,2013-03-08 11:32:00,
2013-03-08 01:41:00,48.0,47.0,-100.00,East,94,7.0,10.0,97,0.00,,,0.01,0.000000,,2013-03-08 11:41:00,
2013-03-08 01:52:00,48.0,47.0,-100.00,East,94,7.0,10.0,97,0.00,,,0.01,0.000000,,2013-03-08 11:52:00,
2013-03-08 02:22:00,44.0,42.0,-100.00,East,100,11.0,16.0,93,0.00,,,0.01,0.000000,,2013-03-08 12:22:00,
2013-03-08 02:32:00,44.0,42.0,-100.00,East,100,11.0,16.0,93,0.00,,,0.01,0.000000,,2013-03-08 12:32:00,
2013-03-08 02:42:00,44.0,42.0,-100.00,East,100,11.0,16.0,93,0.00,,,0.01,0.000000,,2013-03-08 12:42:00,
2013-03-08 02:52:00,44.0,42.0,-100.00,East,100,11.0,16.0,93,0.00,,,0.01,0.000000,,2013-03-08 12:52:00,
2013-03-08 03:21:00,42.0,40.0,-100.00,SE,144,5.0,16.0,94,0.00,,,0.01,0.000000,,2013-03-08 13:21:00,
2013-03-08 03:32:00,42.0,40.0,-100.00,SE,144,5.0,16.0,94,0.00,,,0.01,0.000000,,2013-03-08 13:32:00,
2013-03-08 03:42:00,42.0,40.0,-100.00,SE,144,5.0,16.0,94,0.00,,,0.01,0.000000,,2013-03-08 13:42:00,
2013-03-08 03:52:00,42.0,40.0,-100.00,SE,144,5.0,16.0,94,0.00,,,0.01,0.000000,,2013-03-08 13:52:00,
2013-03-08 04:22:00,42.0,40.0,-100.00,ESE,120,8.0,13.0,93,0.00,,,0.01,0.000000,,2013-03-08 14:22:00,
2013-03-08 04:32:00,42.0,40.0,-100.00,ESE,120,8.0,13.0,93,0.00,,,0.01,0.000000,,2013-03-08 14:32:00,
2013-03-08 04:42:00,42.0,40.0,-100.00,ESE,120,8.0,13.0,93,0.00,,,0.01,0.000000,,2013-03-08 14:42:00,
2013-03-08 04:52:00,42.0,40.0,-100.00,ESE,120,8.0,13.0,93,0.00,,,0.01,0.000000,,2013-03-08 14:52:00,
2013-03-08 05:22:00,43.0,40.0,-100.00,ESE,113,12.0,19.0,89,0.00,,,0.01,0.000000,,2013-03-08 15:22:00,
2013-03-08 05:32:00,43.0,40.0,-100.00,ESE,113,12.0,19.0,89,0.00,,,0.01,0.000000,,2013-03-08 15:32:00,
2013-03-08 05:42:00,43.0,40.0,-100.00,ESE,113,12.0,19.0,89,0.00,,,0.01,0.000000,,2013-03-08 15:42:00,
2013-03-08 05:52:00,43.0,40.0,-100.00,ESE,113,12.0,19.0,89,0.00,,,0.01,0.000000,,2013-03-08 15:52:00,
2013-03-08 06:21:00,43.0,40.0,-100.00,ESE,120,11.0,20.0,90,0.00,,,0.01,0.000000,,2013-03-08 16:21:00,
2013-03-08 06:32:00,43.0,40.0,-100.00,ESE,120,11.0,20.0,90,0.00,,,0.01,0.000000,,2013-03-08 16:32:00,
2013-03-08 06:42:00,43.0,40.0,-100.00,ESE,120,11.0,20.0,90,0.00,,,0.01,0.000000,,2013-03-08 16:42:00,
2013-03-08 06:51:00,43.0,40.0,-100.00,ESE,120,11.0,20.0,90,0.00,,,0.01,0.000000,,2013-03-08 16:51:00,
2013-03-08 07:21:00,44.0,42.0,-100.00,SE,126,10.0,18.0,91,0.00,,,0.01,17.000000,,2013-03-08 17:21:00,
2013-03-08 07:32:00,44.0,42.0,-100.00,SE,126,10.0,18.0,91,0.00,,,0.01,17.000000,,2013-03-08 17:32:00,
2013-03-08 07:41:00,44.0,42.0,-100.00,SE,126,10.0,18.0,91,0.00,,,0.01,17.000000,,2013-03-08 17:41:00,
2013-03-08 07:52:00,44.0,42.0,-100.00,SE,126,10.0,18.0,91,0.00,,,0.01,17.000000,,2013-03-08 17:52:00,
2013-03-08 08:21:00,50.0,43.0,-100.00,ESE,115,12.0,18.0,77,0.00,,,0.01,255.000000,,2013-03-08 18:21:00,
2013-03-08 08:31:00,50.0,43.0,-100.00,ESE,115,12.0,18.0,77,0.00,,,0.01,255.000000,,2013-03-08 18:31:00,
2013-03-08 08:42:00,50.0,43.0,-100.00,ESE,115,12.0,18.0,77,0.00,,,0.01,255.000000,,2013-03-08 18:42:00,
2013-03-08 08:51:00,50.0,43.0,-100.00,ESE,115,12.0,18.0,77,0.00,,,0.01,255.000000,,2013-03-08 18:51:00,
2013-03-08 09:21:00,56.0,40.0,-100.00,ESE,106,10.0,17.0,54,0.00,,,0.01,489.000000,,2013-03-08 19:21:00,
2013-03-08 09:32:00,56.0,40.0,-100.00,ESE,106,10.0,17.0,54,0.00,,,0.01,489.000000,,2013-03-08 19:32:00,
2013-03-08 09:41:00,56.0,40.0,-100.00,ESE,106,10.0,17.0,54,0.00,,,0.01,489.000000,,2013-03-08 19:41:00,
2013-03-08 09:51:00,56.0,40.0,-100.00,ESE,106,10.0,17.0,54,0.00,,,0.01,489.000000,,2013-03-08 19:51:00,
2013-03-08 10:21:00,61.0,38.0,-100.00,NNW,332,6.0,15.0,42,0.00,,,0.01,873.000000,,2013-03-08 20:21:00,
2013-03-08 10:32:00,61.0,38.0,-100.00,NNW,332,6.0,15.0,42,0.00,,,0.01,873.000000,,2013-03-08 20:32:00,
2013-03-08 10:41:00,61.0,38.0,-100.00,NNW,332,6.0,15.0,42,0.00,,,0.01,873.000000,,2013-03-08 20:41:00,
2013-03-08 10:52:00,61.0,38.0,-100.00,NNW,332,6.0,15.0,42,0.00,,,0.01,873.000000,,2013-03-08 20:52:00,
2013-03-08 11:21:00,64.0,43.0,-100.00,NW,305,8.0,17.0,46,0.00,,,0.01,1087.000000,,2013-03-08 21:21:00,
2013-03-08 11:32:00,64.0,43.0,-100.00,NW,305,8.0,17.0,46,0.00,,,0.01,1087.000000,,2013-03-08 21:32:00,
2013-03-08 11:41:00,64.0,43.0,-100.00,NW,305,8.0,17.0,46,0.00,,,0.01,1087.000000,,2013-03-08 21:41:00,
2013-03-08 11:51:00,64.0,43.0,-100.00,NW,305,8.0,17.0,46,0.00,,,0.01,1087.000000,,2013-03-08 21:51:00,
2013-03-08 12:22:00,65.0,45.0,-100.00,WNW,301,9.0,19.0,49,0.00,,,0.01,1230.000000,,2013-03-08 22:22:00,
2013-03-08 12:32:00,65.0,45.0,-100.00,WNW,301,9.0,19.0,49,0.00,,,0.01,1230.000000,,2013-03-08 22:32:00,
2013-03-08 12:42:00,65.0,45.0,-100.00,WNW,301,9.0,19.0,49,0.00,,,0.01,1230.000000,,2013-03-08 22:42:00,
2013-03-08 12:52:00,65.0,45.0,-100.00,WNW,301,9.0,19.0,49,0.00,,,0.01,1230.000000,,2013-03-08 22:52:00,
2013-03-08 13:21:00,67.0,44.0,-100.00,NW,308,6.0,15.0,43,0.00,,,0.01,1288.000000,,2013-03-08 23:21:00,
2013-03-08 13:32:00,67.0,44.0,-100.00,NW,308,6.0,15.0,43,0.00,,,0.01,1288.000000,,2013-03-08 23:32:00,
2013-03-08 13:42:00,67.0,44.0,-100.00,NW,308,6.0,15.0,43,0.00,,,0.01,1288.000000,,2013-03-08 23:42:00,
2013-03-08 13:52:00,67.0,44.0,-100.00,NW,308,6.0,15.0,43,0.00,,,0.01,1288.000000,,2013-03-08 23:52:00,
2013-03-08 14:21:00,68.0,48.0,-100.00,WNW,293,9.0,18.0,48,0.00,,,0.01,1319.000000,,2013-03-09 00:21:00,
2013-03-08 14:32:00,68.0,48.0,-100.00,WNW,293,9.0,18.0,48,0.00,,,0.01,1319.000000,,2013-03-09 00:32:00,
2013-03-08 14:42:00,68.0,48.0,-100.00,WNW,293,9.0,18.0,48,0.00,,,0.01,1319.000000,,2013-03-09 00:42:00,
2013-03-08 14:51:00,68.0,48.0,-100.00,WNW,293,9.0,18.0,48,0.00,,,0.01,1319.000000,,2013-03-09 00:51:00,
2013-03-08 15:21:00,61.0,50.0,-100.00,NW,315,9.0,18.0,67,0.00,,,0.01,530.000000,,2013-03-09 01:21:00,
2013-03-08 15:31:00,61.0,50.0,-100.00,NW,315,9.0,18.0,67,0.00,,,0.01,530.000000,,2013-03-09 01:31:00,
2013-03-08 15:41:00,61.0,50.0,-100.00,NW,315,9.0,18.0,67,0.00,,,0.01,530.000000,,2013-03-09 01:41:00,
2013-03-08 15:51:00,61.0,50.0,-100.00,NW,315,9.0,18.0,67,0.00,,,0.01,530.000000,,2013-03-09 01:51:00,
2013-03-08 18:22:00,55.0,48.0,-100.00,WNW,299,8.0,15.0,78,-99.99,,,0.01,211.000000,,2013-03-09 04:22:00,
2013-03-08 18:31:00,55.0,48.0,-100.00,WNW,299,8.0,15.0,78,-99.99,,,0.01,211.000000,,2013-03-09 04:31:00,
2013-03-08 18:41:00,55.0,48.0,-100.00,WNW,299,8.0,15.0,78,-99.99,,,0.01,211.000000,,2013-03-09 04:41:00,
2013-03-08 18:51:00,55.0,48.0,-100.00,WNW,299,8.0,15.0,78,-99.99,,,0.01,211.000000,,2013-03-09 04:51:00,
2013-03-08 19:21:00,52.0,48.0,-100.00,WNW,294,6.0,13.0,85,0.00,,,0.01,9.000000,,2013-03-09 05:21:00,
2013-03-08 19:31:00,52.0,48.0,-100.00,WNW,294,6.0,13.0,85,0.00,,,0.01,9.000000,,2013-03-09 05:31:00,
2013-03-08 19:42:00,52.0,48.0,-100.00,WNW,294,6.0,13.0,85,0.00,,,0.01,9.000000,,2013-03-09 05:42:00,
2013-03-08 19:52:00,52.0,48.0,-100.00,WNW,294,6.0,13.0,85,0.00,,,0.01,9.000000,,2013-03-09 05:52:00,
2013-03-08 20:22:00,51.0,46.0,-100.00,West,274,7.0,13.0,84,0.00,,,0.01,0.000000,,2013-03-09 06:22:00,
2013-03-08 20:31:00,51.0,46.0,-100.00,West,274,7.0,13.0,84,0.00,,,0.01,0.000000,,2013-03-09 06:31:00,
2013-03-08 20:42:00,51.0,46.0,-100.00,West,274,7.0,13.0,84,0.00,,,0.01,0.000000,,2013-03-09 06:42:00,
2013-03-08 20:51:00,51.0,46.0,-100.00,West,274,7.0,13.0,84,0.00,,,0.01,0.000000,,2013-03-09 06:51:00,
2013-03-08 21:21:00,51.0,47.0,-100.00,WNW,298,7.0,14.0,87,0.00,,,0.00,0.000000,,2013-03-09 07:21:00,
2013-03-08 21:31:00,51.0,47.0,-100.00,WNW,298,7.0,14.0,87,0.00,,,0.00,0.000000,,2013-03-09 07:31:00,
2013-03-08 21:41:00,51.0,47.0,-100.00,WNW,298,7.0,14.0,87,0.00,,,0.00,0.000000,,2013-03-09 07:41:00,
2013-03-08 21:51:00,51.0,47.0,-100.00,WNW,298,7.0,14.0,87,0.00,,,0.00,0.000000,,2013-03-09 07:51:00,
2013-03-08 22:21:00,48.0,44.0,-100.00,NNW,333,7.0,10.0,86,0.00,,,0.00,0.000000,,2013-03-09 08:21:00,
2013-03-08 22:31:00,48.0,44.0,-100.00,NNW,333,7.0,10.0,86,0.00,,,0.00,0.000000,,2013-03-09 08:31:00,
2013-03-08 22:41:00,48.0,44.0,-100.00,NNW,333,7.0,10.0,86,0.00,,,0.00,0.000000,,2013-03-09 08:41:00,
2013-03-08 22:52:00,48.0,44.0,-100.00,NNW,333,7.0,10.0,86,0.00,,,0.00,0.000000,,2013-03-09 08:52:00,
2013-03-08 23:21:00,46.0,41.0,-100.00,NNE,16,3.0,7.0,83,0.00,,,0.00,0.000000,,2013-03-09 09:21:00,
2013-03-08 23:31:00,46.0,41.0,-100.00,NNE,16,3.0,7.0,83,0.00,,,0.00,0.000000,,2013-03-09 09:31:00,
2013-03-08 23:41:00,46.0,41.0,-100.00,NNE,16,3.0,7.0,83,0.00,,,0.00,0.000000,,2013-03-09 09:41:00,
2013-03-08 23:52:00,46.0,41.0,-100.00,NNE,16,3.0,7.0,83,0.00,,,0.00,0.000000,,2013-03-09 09:52:00,